sensor_id;sensor_type;location;lat;lon;timestamp;temperature;humidity
52209;DHT22;38507;53.132;6.394;2023-10-31T00:01:04;10.50;99.90
52209;DHT22;38507;53.132;6.394;2023-10-31T00:03:31;10.40;99.90
52209;DHT22;38507;53.132;6.394;2023-10-31T00:05:57;10.40;99.90
52209;DHT22;38507;53.132;6.394;2023-10-31T00:08:22;10.40;99.90
52209;DHT22;38507;53.132;6.394;2023-10-31T00:10:49;10.30;99.90
52209;DHT22;38507;53.132;6.394;2023-10-31T00:13:15;10.30;99.90
52209;DHT22;38507;53.132;6.394;2023-10-31T00:15:41;10.30;99.90
52209;DHT22;38507;53.132;6.394;2023-10-31T00:18:07;10.20;99.90
52209;DHT22;38507;53.132;6.394;2023-10-31T00:20:32;10.20;99.90
52209;DHT22;38507;53.132;6.394;2023-10-31T00:22:58;10.10;99.90
52209;DHT22;38507;53.132;6.394;2023-10-31T00:25:24;10.20;99.90
52209;DHT22;38507;53.132;6.394;2023-10-31T00:27:49;10.20;99.90
52209;DHT22;38507;53.132;6.394;2023-10-31T00:30:15;10.20;99.90
52209;DHT22;38507;53.132;6.394;2023-10-31T00:32:41;10.10;99.90
52209;DHT22;38507;53.132;6.394;2023-10-31T00:35:07;10.10;99.90
52209;DHT22;38507;53.132;6.394;2023-10-31T00:37:32;10.10;99.90
52209;DHT22;38507;53.132;6.394;2023-10-31T00:39:58;10.10;99.90
52209;DHT22;38507;53.132;6.394;2023-10-31T00:42:23;10.10;99.90
52209;DHT22;38507;53.132;6.394;2023-10-31T00:44:49;10.40;99.90
52209;DHT22;38507;53.132;6.394;2023-10-31T00:47:15;10.10;99.90
52209;DHT22;38507;53.132;6.394;2023-10-31T00:49:41;10.10;99.90
52209;DHT22;38507;53.132;6.394;2023-10-31T00:52:06;10.20;99.90
52209;DHT22;38507;53.132;6.394;2023-10-31T00:54:32;10.10;99.90
52209;DHT22;38507;53.132;6.394;2023-10-31T00:56:57;10.10;99.90
52209;DHT22;38507;53.132;6.394;2023-10-31T00:59:23;10.10;99.90
52209;DHT22;38507;53.132;6.394;2023-10-31T01:01:49;10.20;99.90
52209;DHT22;38507;53.132;6.394;2023-10-31T01:04:15;10.10;99.90
52209;DHT22;38507;53.132;6.394;2023-10-31T01:06:41;10.20;99.90
52209;DHT22;38507;53.132;6.394;2023-10-31T01:09:08;10.10;99.90
52209;DHT22;38507;53.132;6.394;2023-10-31T01:11:33;10.10;99.90
52209;DHT22;38507;53.132;6.394;2023-10-31T01:13:59;10.00;99.90
52209;DHT22;38507;53.132;6.394;2023-10-31T01:16:25;10.10;99.90
52209;DHT22;38507;53.132;6.394;2023-10-31T01:18:50;10.10;99.90
52209;DHT22;38507;53.132;6.394;2023-10-31T01:21:16;10.10;99.90
52209;DHT22;38507;53.132;6.394;2023-10-31T01:23:42;10.00;99.90
52209;DHT22;38507;53.132;6.394;2023-10-31T01:26:07;10.00;99.90
52209;DHT22;38507;53.132;6.394;2023-10-31T01:28:33;10.30;99.90
52209;DHT22;38507;53.132;6.394;2023-10-31T01:30:58;10.00;99.90
52209;DHT22;38507;53.132;6.394;2023-10-31T01:33:24;10.10;99.90
52209;DHT22;38507;53.132;6.394;2023-10-31T01:35:50;10.00;99.90
52209;DHT22;38507;53.132;6.394;2023-10-31T01:38:15;9.90;99.90
52209;DHT22;38507;53.132;6.394;2023-10-31T01:40:41;10.00;99.90
52209;DHT22;38507;53.132;6.394;2023-10-31T01:43:06;9.90;99.90
52209;DHT22;38507;53.132;6.394;2023-10-31T01:45:32;9.90;99.90
52209;DHT22;38507;53.132;6.394;2023-10-31T01:47:58;9.90;99.90
52209;DHT22;38507;53.132;6.394;2023-10-31T01:50:24;10.10;99.90
52209;DHT22;38507;53.132;6.394;2023-10-31T01:52:51;9.90;99.90
52209;DHT22;38507;53.132;6.394;2023-10-31T01:55:17;10.00;99.90
52209;DHT22;38507;53.132;6.394;2023-10-31T01:57:45;9.80;99.90
52209;DHT22;38507;53.132;6.394;2023-10-31T02:00:13;9.80;99.90
52209;DHT22;38507;53.132;6.394;2023-10-31T02:02:40;9.80;99.90
52209;DHT22;38507;53.132;6.394;2023-10-31T02:05:10;9.80;99.90
52209;DHT22;38507;53.132;6.394;2023-10-31T02:07:35;9.80;99.90
52209;DHT22;38507;53.132;6.394;2023-10-31T02:10:01;9.80;99.90
52209;DHT22;38507;53.132;6.394;2023-10-31T02:12:34;9.80;99.90
52209;DHT22;38507;53.132;6.394;2023-10-31T02:15:01;9.80;99.90
52209;DHT22;38507;53.132;6.394;2023-10-31T02:17:26;9.80;99.90
52209;DHT22;38507;53.132;6.394;2023-10-31T02:19:52;9.80;99.90
52209;DHT22;38507;53.132;6.394;2023-10-31T02:22:18;9.80;99.90
52209;DHT22;38507;53.132;6.394;2023-10-31T02:24:44;9.80;99.90
52209;DHT22;38507;53.132;6.394;2023-10-31T02:27:09;9.90;99.90
52209;DHT22;38507;53.132;6.394;2023-10-31T02:29:35;9.80;99.90
52209;DHT22;38507;53.132;6.394;2023-10-31T02:32:01;9.90;99.90
52209;DHT22;38507;53.132;6.394;2023-10-31T02:34:26;9.80;99.90
52209;DHT22;38507;53.132;6.394;2023-10-31T02:36:52;9.80;99.90
52209;DHT22;38507;53.132;6.394;2023-10-31T02:39:17;9.90;99.90
52209;DHT22;38507;53.132;6.394;2023-10-31T02:41:43;9.80;99.90
52209;DHT22;38507;53.132;6.394;2023-10-31T02:44:09;9.80;99.90
52209;DHT22;38507;53.132;6.394;2023-10-31T02:46:38;9.80;99.90
52209;DHT22;38507;53.132;6.394;2023-10-31T02:49:04;9.80;99.90
52209;DHT22;38507;53.132;6.394;2023-10-31T02:51:29;9.90;99.90
52209;DHT22;38507;53.132;6.394;2023-10-31T02:53:55;10.00;99.90
52209;DHT22;38507;53.132;6.394;2023-10-31T02:56:21;9.80;99.90
52209;DHT22;38507;53.132;6.394;2023-10-31T02:58:46;9.80;99.90
52209;DHT22;38507;53.132;6.394;2023-10-31T03:01:12;9.90;99.90
52209;DHT22;38507;53.132;6.394;2023-10-31T03:03:37;9.90;99.90
52209;DHT22;38507;53.132;6.394;2023-10-31T03:06:05;9.80;99.90
52209;DHT22;38507;53.132;6.394;2023-10-31T03:08:30;9.90;99.90
52209;DHT22;38507;53.132;6.394;2023-10-31T03:10:56;9.90;99.90
52209;DHT22;38507;53.132;6.394;2023-10-31T03:13:22;10.00;99.90
52209;DHT22;38507;53.132;6.394;2023-10-31T03:15:49;9.90;99.90
52209;DHT22;38507;53.132;6.394;2023-10-31T03:18:14;9.90;99.90
52209;DHT22;38507;53.132;6.394;2023-10-31T03:20:42;10.00;99.90
52209;DHT22;38507;53.132;6.394;2023-10-31T03:23:08;9.90;99.90
52209;DHT22;38507;53.132;6.394;2023-10-31T03:25:34;9.90;99.90
52209;DHT22;38507;53.132;6.394;2023-10-31T03:27:59;10.10;99.90
52209;DHT22;38507;53.132;6.394;2023-10-31T03:30:25;9.90;99.90
52209;DHT22;38507;53.132;6.394;2023-10-31T03:32:51;9.90;99.90
52209;DHT22;38507;53.132;6.394;2023-10-31T03:35:16;9.90;99.90
52209;DHT22;38507;53.132;6.394;2023-10-31T03:37:42;9.90;99.90
52209;DHT22;38507;53.132;6.394;2023-10-31T03:40:08;9.90;99.90
52209;DHT22;38507;53.132;6.394;2023-10-31T03:42:34;10.00;99.90
52209;DHT22;38507;53.132;6.394;2023-10-31T03:45:00;10.00;99.90
52209;DHT22;38507;53.132;6.394;2023-10-31T03:47:25;10.10;99.90
52209;DHT22;38507;53.132;6.394;2023-10-31T03:49:51;9.90;99.90
52209;DHT22;38507;53.132;6.394;2023-10-31T03:52:16;10.00;99.90
52209;DHT22;38507;53.132;6.394;2023-10-31T03:54:42;10.00;99.90
52209;DHT22;38507;53.132;6.394;2023-10-31T03:57:07;10.00;99.90
52209;DHT22;38507;53.132;6.394;2023-10-31T03:59:33;10.20;99.90
52209;DHT22;38507;53.132;6.394;2023-10-31T04:01:59;10.00;99.90
52209;DHT22;38507;53.132;6.394;2023-10-31T04:04:24;10.10;99.90
52209;DHT22;38507;53.132;6.394;2023-10-31T04:06:50;10.30;99.90
52209;DHT22;38507;53.132;6.394;2023-10-31T04:09:16;10.00;99.90
52209;DHT22;38507;53.132;6.394;2023-10-31T04:11:41;10.10;99.90
52209;DHT22;38507;53.132;6.394;2023-10-31T04:14:08;10.00;99.90
52209;DHT22;38507;53.132;6.394;2023-10-31T04:16:39;10.20;99.90
52209;DHT22;38507;53.132;6.394;2023-10-31T04:19:05;10.10;99.90
52209;DHT22;38507;53.132;6.394;2023-10-31T04:21:30;10.10;99.90
52209;DHT22;38507;53.132;6.394;2023-10-31T04:23:56;10.10;99.90
52209;DHT22;38507;53.132;6.394;2023-10-31T04:26:23;10.30;99.90
52209;DHT22;38507;53.132;6.394;2023-10-31T04:28:49;10.10;99.90
52209;DHT22;38507;53.132;6.394;2023-10-31T04:31:14;10.10;99.90
52209;DHT22;38507;53.132;6.394;2023-10-31T04:33:40;10.40;99.90
52209;DHT22;38507;53.132;6.394;2023-10-31T04:36:06;10.20;99.90
52209;DHT22;38507;53.132;6.394;2023-10-31T04:38:31;10.20;99.90
52209;DHT22;38507;53.132;6.394;2023-10-31T04:40:57;10.10;99.90
52209;DHT22;38507;53.132;6.394;2023-10-31T04:43:22;10.10;99.90
52209;DHT22;38507;53.132;6.394;2023-10-31T04:45:48;10.20;99.90
52209;DHT22;38507;53.132;6.394;2023-10-31T04:48:14;10.30;99.90
52209;DHT22;38507;53.132;6.394;2023-10-31T04:50:39;10.10;99.90
52209;DHT22;38507;53.132;6.394;2023-10-31T04:53:05;10.10;99.90
52209;DHT22;38507;53.132;6.394;2023-10-31T04:55:31;10.10;99.90
52209;DHT22;38507;53.132;6.394;2023-10-31T04:57:56;10.20;99.90
52209;DHT22;38507;53.132;6.394;2023-10-31T05:00:22;10.10;99.90
52209;DHT22;38507;53.132;6.394;2023-10-31T05:02:47;10.10;99.90
52209;DHT22;38507;53.132;6.394;2023-10-31T05:05:14;10.00;99.90
52209;DHT22;38507;53.132;6.394;2023-10-31T05:07:40;10.00;99.90
52209;DHT22;38507;53.132;6.394;2023-10-31T05:10:06;10.10;99.90
52209;DHT22;38507;53.132;6.394;2023-10-31T05:12:32;10.00;99.90
52209;DHT22;38507;53.132;6.394;2023-10-31T05:14:57;10.20;99.90
52209;DHT22;38507;53.132;6.394;2023-10-31T05:17:23;10.00;99.90
52209;DHT22;38507;53.132;6.394;2023-10-31T05:19:49;10.00;99.90
52209;DHT22;38507;53.132;6.394;2023-10-31T05:22:14;10.10;99.90
52209;DHT22;38507;53.132;6.394;2023-10-31T05:24:40;10.10;99.90
52209;DHT22;38507;53.132;6.394;2023-10-31T05:27:05;10.10;99.90
52209;DHT22;38507;53.132;6.394;2023-10-31T05:29:33;10.00;99.90
52209;DHT22;38507;53.132;6.394;2023-10-31T05:31:59;10.10;99.90
52209;DHT22;38507;53.132;6.394;2023-10-31T05:34:26;10.00;99.90
52209;DHT22;38507;53.132;6.394;2023-10-31T05:36:52;10.20;99.90
52209;DHT22;38507;53.132;6.394;2023-10-31T05:39:17;10.00;99.90
52209;DHT22;38507;53.132;6.394;2023-10-31T05:41:43;10.00;99.90
52209;DHT22;38507;53.132;6.394;2023-10-31T05:44:08;10.00;99.90
52209;DHT22;38507;53.132;6.394;2023-10-31T05:46:38;10.10;99.90
52209;DHT22;38507;53.132;6.394;2023-10-31T05:49:06;10.00;99.90
52209;DHT22;38507;53.132;6.394;2023-10-31T05:51:32;10.00;99.90
52209;DHT22;38507;53.132;6.394;2023-10-31T05:53:59;10.10;99.90
52209;DHT22;38507;53.132;6.394;2023-10-31T05:56:25;10.00;99.90
52209;DHT22;38507;53.132;6.394;2023-10-31T05:58:51;10.00;99.90
52209;DHT22;38507;53.132;6.394;2023-10-31T06:01:16;10.00;99.90
52209;DHT22;38507;53.132;6.394;2023-10-31T06:03:43;10.10;99.90
52209;DHT22;38507;53.132;6.394;2023-10-31T06:06:09;10.00;99.90
52209;DHT22;38507;53.132;6.394;2023-10-31T06:08:35;10.10;99.90
52209;DHT22;38507;53.132;6.394;2023-10-31T06:11:01;10.10;99.90
52209;DHT22;38507;53.132;6.394;2023-10-31T06:13:26;10.10;99.90
52209;DHT22;38507;53.132;6.394;2023-10-31T06:15:54;10.10;99.90
52209;DHT22;38507;53.132;6.394;2023-10-31T06:18:19;10.10;99.90
52209;DHT22;38507;53.132;6.394;2023-10-31T06:20:45;10.10;99.90
52209;DHT22;38507;53.132;6.394;2023-10-31T06:23:10;10.20;99.90
52209;DHT22;38507;53.132;6.394;2023-10-31T06:25:36;10.10;99.90
52209;DHT22;38507;53.132;6.394;2023-10-31T06:28:02;10.20;99.90
52209;DHT22;38507;53.132;6.394;2023-10-31T06:30:27;10.10;99.90
52209;DHT22;38507;53.132;6.394;2023-10-31T06:32:53;10.10;99.90
52209;DHT22;38507;53.132;6.394;2023-10-31T06:35:19;10.20;99.90
52209;DHT22;38507;53.132;6.394;2023-10-31T06:37:45;10.10;99.90
52209;DHT22;38507;53.132;6.394;2023-10-31T06:40:10;10.20;99.90
52209;DHT22;38507;53.132;6.394;2023-10-31T06:42:36;10.20;99.90
52209;DHT22;38507;53.132;6.394;2023-10-31T06:45:03;10.30;99.90
52209;DHT22;38507;53.132;6.394;2023-10-31T06:47:28;10.20;99.90
52209;DHT22;38507;53.132;6.394;2023-10-31T06:49:54;10.20;99.90
52209;DHT22;38507;53.132;6.394;2023-10-31T06:52:19;10.30;99.90
52209;DHT22;38507;53.132;6.394;2023-10-31T06:54:45;10.20;99.90
52209;DHT22;38507;53.132;6.394;2023-10-31T06:57:11;10.10;99.90
52209;DHT22;38507;53.132;6.394;2023-10-31T06:59:37;10.20;99.90
52209;DHT22;38507;53.132;6.394;2023-10-31T07:02:02;10.20;99.90
52209;DHT22;38507;53.132;6.394;2023-10-31T07:04:28;10.20;99.90
52209;DHT22;38507;53.132;6.394;2023-10-31T07:06:53;10.20;99.90
52209;DHT22;38507;53.132;6.394;2023-10-31T07:09:26;10.20;99.90
52209;DHT22;38507;53.132;6.394;2023-10-31T07:11:52;10.20;99.90
52209;DHT22;38507;53.132;6.394;2023-10-31T07:14:17;10.30;99.90
52209;DHT22;38507;53.132;6.394;2023-10-31T07:16:43;10.20;99.90
52209;DHT22;38507;53.132;6.394;2023-10-31T07:19:12;10.20;99.90
52209;DHT22;38507;53.132;6.394;2023-10-31T07:21:38;10.20;99.90
52209;DHT22;38507;53.132;6.394;2023-10-31T07:24:04;10.20;99.90
52209;DHT22;38507;53.132;6.394;2023-10-31T07:26:29;10.20;99.90
52209;DHT22;38507;53.132;6.394;2023-10-31T07:28:55;10.20;99.90
52209;DHT22;38507;53.132;6.394;2023-10-31T07:31:21;10.20;99.90
52209;DHT22;38507;53.132;6.394;2023-10-31T07:33:47;10.40;99.90
52209;DHT22;38507;53.132;6.394;2023-10-31T07:36:13;10.30;99.90
52209;DHT22;38507;53.132;6.394;2023-10-31T07:38:39;10.20;99.90
52209;DHT22;38507;53.132;6.394;2023-10-31T07:41:04;10.20;99.90
52209;DHT22;38507;53.132;6.394;2023-10-31T07:43:30;10.20;99.90
52209;DHT22;38507;53.132;6.394;2023-10-31T07:45:56;10.30;99.90
52209;DHT22;38507;53.132;6.394;2023-10-31T07:48:21;10.30;99.90
52209;DHT22;38507;53.132;6.394;2023-10-31T07:50:47;10.30;99.90
52209;DHT22;38507;53.132;6.394;2023-10-31T07:53:12;10.40;99.90
52209;DHT22;38507;53.132;6.394;2023-10-31T07:55:38;10.50;99.90
52209;DHT22;38507;53.132;6.394;2023-10-31T07:58:04;10.50;99.90
52209;DHT22;38507;53.132;6.394;2023-10-31T08:00:29;10.50;99.90
52209;DHT22;38507;53.132;6.394;2023-10-31T08:02:56;10.40;99.90
52209;DHT22;38507;53.132;6.394;2023-10-31T08:05:22;10.50;99.90
52209;DHT22;38507;53.132;6.394;2023-10-31T08:07:47;10.40;99.90
52209;DHT22;38507;53.132;6.394;2023-10-31T08:10:13;10.50;99.90
52209;DHT22;38507;53.132;6.394;2023-10-31T08:12:39;10.70;99.90
52209;DHT22;38507;53.132;6.394;2023-10-31T08:15:05;10.60;99.90
52209;DHT22;38507;53.132;6.394;2023-10-31T08:17:30;10.50;99.90
52209;DHT22;38507;53.132;6.394;2023-10-31T08:19:56;10.60;99.90
52209;DHT22;38507;53.132;6.394;2023-10-31T08:22:22;10.60;99.90
52209;DHT22;38507;53.132;6.394;2023-10-31T08:24:48;10.60;99.90
52209;DHT22;38507;53.132;6.394;2023-10-31T08:27:13;10.60;99.90
52209;DHT22;38507;53.132;6.394;2023-10-31T08:29:40;10.60;99.90
52209;DHT22;38507;53.132;6.394;2023-10-31T08:32:06;10.70;99.90
52209;DHT22;38507;53.132;6.394;2023-10-31T08:34:32;10.60;99.90
52209;DHT22;38507;53.132;6.394;2023-10-31T08:36:58;10.70;99.90
52209;DHT22;38507;53.132;6.394;2023-10-31T08:39:26;10.70;99.90
52209;DHT22;38507;53.132;6.394;2023-10-31T08:41:55;10.70;99.90
52209;DHT22;38507;53.132;6.394;2023-10-31T08:44:21;10.70;99.90
52209;DHT22;38507;53.132;6.394;2023-10-31T08:46:47;10.80;99.90
52209;DHT22;38507;53.132;6.394;2023-10-31T08:49:14;10.70;99.90
52209;DHT22;38507;53.132;6.394;2023-10-31T08:51:40;10.80;99.90
52209;DHT22;38507;53.132;6.394;2023-10-31T08:54:05;10.80;99.90
52209;DHT22;38507;53.132;6.394;2023-10-31T08:56:31;10.80;99.90
52209;DHT22;38507;53.132;6.394;2023-10-31T08:58:57;10.90;99.90
52209;DHT22;38507;53.132;6.394;2023-10-31T09:01:22;11.00;99.90
52209;DHT22;38507;53.132;6.394;2023-10-31T09:03:48;10.90;99.90
52209;DHT22;38507;53.132;6.394;2023-10-31T09:06:14;11.00;99.90
52209;DHT22;38507;53.132;6.394;2023-10-31T09:08:40;11.10;99.90
52209;DHT22;38507;53.132;6.394;2023-10-31T09:11:06;11.10;99.90
52209;DHT22;38507;53.132;6.394;2023-10-31T09:13:32;11.10;99.90
52209;DHT22;38507;53.132;6.394;2023-10-31T09:15:59;11.10;99.90
52209;DHT22;38507;53.132;6.394;2023-10-31T09:18:24;11.10;99.90
52209;DHT22;38507;53.132;6.394;2023-10-31T09:20:51;11.10;99.90
52209;DHT22;38507;53.132;6.394;2023-10-31T09:23:16;11.10;99.90
52209;DHT22;38507;53.132;6.394;2023-10-31T09:25:45;11.10;99.90
52209;DHT22;38507;53.132;6.394;2023-10-31T09:28:11;11.10;99.90
52209;DHT22;38507;53.132;6.394;2023-10-31T09:30:37;11.10;99.90
52209;DHT22;38507;53.132;6.394;2023-10-31T09:33:03;11.20;99.90
52209;DHT22;38507;53.132;6.394;2023-10-31T09:35:28;11.10;99.90
52209;DHT22;38507;53.132;6.394;2023-10-31T09:37:54;11.10;99.90
52209;DHT22;38507;53.132;6.394;2023-10-31T09:40:20;11.30;99.90
52209;DHT22;38507;53.132;6.394;2023-10-31T09:42:47;11.40;99.90
52209;DHT22;38507;53.132;6.394;2023-10-31T09:45:13;11.20;99.90
52209;DHT22;38507;53.132;6.394;2023-10-31T09:47:39;11.40;99.90
52209;DHT22;38507;53.132;6.394;2023-10-31T09:50:06;11.20;99.90
52209;DHT22;38507;53.132;6.394;2023-10-31T09:52:34;11.20;99.90
52209;DHT22;38507;53.132;6.394;2023-10-31T09:55:02;11.30;99.90
52209;DHT22;38507;53.132;6.394;2023-10-31T09:57:28;11.30;99.90
52209;DHT22;38507;53.132;6.394;2023-10-31T09:59:54;11.40;99.90
52209;DHT22;38507;53.132;6.394;2023-10-31T10:02:20;11.40;99.90
52209;DHT22;38507;53.132;6.394;2023-10-31T10:04:45;11.50;99.90
52209;DHT22;38507;53.132;6.394;2023-10-31T10:07:16;11.60;99.90
52209;DHT22;38507;53.132;6.394;2023-10-31T10:09:43;11.50;99.90
52209;DHT22;38507;53.132;6.394;2023-10-31T10:12:20;11.60;99.90
52209;DHT22;38507;53.132;6.394;2023-10-31T10:14:46;11.60;99.90
52209;DHT22;38507;53.132;6.394;2023-10-31T10:17:17;11.60;99.90
52209;DHT22;38507;53.132;6.394;2023-10-31T10:19:44;11.70;99.90
52209;DHT22;38507;53.132;6.394;2023-10-31T10:22:09;11.60;99.90
52209;DHT22;38507;53.132;6.394;2023-10-31T10:24:39;11.70;99.90
52209;DHT22;38507;53.132;6.394;2023-10-31T10:27:07;11.60;99.90
52209;DHT22;38507;53.132;6.394;2023-10-31T10:29:34;11.50;99.90
52209;DHT22;38507;53.132;6.394;2023-10-31T10:31:59;11.50;99.90
52209;DHT22;38507;53.132;6.394;2023-10-31T10:34:25;11.70;99.90
52209;DHT22;38507;53.132;6.394;2023-10-31T10:36:50;11.50;99.90
52209;DHT22;38507;53.132;6.394;2023-10-31T10:39:20;11.60;99.90
52209;DHT22;38507;53.132;6.394;2023-10-31T10:41:53;11.60;99.90
52209;DHT22;38507;53.132;6.394;2023-10-31T10:46:58;11.70;99.90
52209;DHT22;38507;53.132;6.394;2023-10-31T10:49:27;11.70;99.90
52209;DHT22;38507;53.132;6.394;2023-10-31T10:51:58;11.70;99.90
52209;DHT22;38507;53.132;6.394;2023-10-31T10:54:40;11.70;99.90
52209;DHT22;38507;53.132;6.394;2023-10-31T10:59:55;11.70;99.90
52209;DHT22;38507;53.132;6.394;2023-10-31T11:02:25;11.80;99.90
52209;DHT22;38507;53.132;6.394;2023-10-31T11:04:51;12.00;99.90
52209;DHT22;38507;53.132;6.394;2023-10-31T11:07:18;11.80;99.90
52209;DHT22;38507;53.132;6.394;2023-10-31T11:09:44;12.00;99.90
52209;DHT22;38507;53.132;6.394;2023-10-31T11:12:10;11.90;99.90
52209;DHT22;38507;53.132;6.394;2023-10-31T11:14:37;11.90;99.90
52209;DHT22;38507;53.132;6.394;2023-10-31T11:17:11;12.00;99.90
52209;DHT22;38507;53.132;6.394;2023-10-31T11:19:39;12.00;99.90
52209;DHT22;38507;53.132;6.394;2023-10-31T11:22:05;11.90;99.90
52209;DHT22;38507;53.132;6.394;2023-10-31T11:24:32;12.00;99.90
52209;DHT22;38507;53.132;6.394;2023-10-31T11:27:01;12.10;99.90
52209;DHT22;38507;53.132;6.394;2023-10-31T11:29:27;12.10;99.90
52209;DHT22;38507;53.132;6.394;2023-10-31T11:31:56;12.10;99.90
52209;DHT22;38507;53.132;6.394;2023-10-31T11:34:22;12.10;99.90
52209;DHT22;38507;53.132;6.394;2023-10-31T11:36:48;12.20;99.90
52209;DHT22;38507;53.132;6.394;2023-10-31T11:39:19;12.20;99.90
52209;DHT22;38507;53.132;6.394;2023-10-31T11:41:51;12.10;99.90
52209;DHT22;38507;53.132;6.394;2023-10-31T11:44:30;12.10;99.90
52209;DHT22;38507;53.132;6.394;2023-10-31T11:46:58;12.10;99.90
52209;DHT22;38507;53.132;6.394;2023-10-31T11:49:46;12.10;99.90
52209;DHT22;38507;53.132;6.394;2023-10-31T11:52:18;12.10;99.90
52209;DHT22;38507;53.132;6.394;2023-10-31T11:54:44;12.20;99.90
52209;DHT22;38507;53.132;6.394;2023-10-31T11:57:10;12.20;99.90
52209;DHT22;38507;53.132;6.394;2023-10-31T11:59:39;12.20;99.90
52209;DHT22;38507;53.132;6.394;2023-10-31T12:02:15;12.20;99.90
52209;DHT22;38507;53.132;6.394;2023-10-31T12:04:41;12.20;99.90
52209;DHT22;38507;53.132;6.394;2023-10-31T12:07:06;12.20;99.90
52209;DHT22;38507;53.132;6.394;2023-10-31T12:09:33;12.20;99.90
52209;DHT22;38507;53.132;6.394;2023-10-31T12:11:58;12.30;99.90
52209;DHT22;38507;53.132;6.394;2023-10-31T12:14:24;12.10;99.90
52209;DHT22;38507;53.132;6.394;2023-10-31T12:16:50;12.30;99.90
52209;DHT22;38507;53.132;6.394;2023-10-31T12:19:15;12.20;99.90
52209;DHT22;38507;53.132;6.394;2023-10-31T12:21:43;12.10;99.90
52209;DHT22;38507;53.132;6.394;2023-10-31T12:24:11;12.20;99.90
52209;DHT22;38507;53.132;6.394;2023-10-31T12:26:37;12.10;99.90
52209;DHT22;38507;53.132;6.394;2023-10-31T12:29:16;12.10;99.90
52209;DHT22;38507;53.132;6.394;2023-10-31T12:31:45;12.10;99.90
52209;DHT22;38507;53.132;6.394;2023-10-31T12:34:11;12.20;99.90
52209;DHT22;38507;53.132;6.394;2023-10-31T12:36:37;12.10;99.90
52209;DHT22;38507;53.132;6.394;2023-10-31T12:39:05;12.00;99.90
52209;DHT22;38507;53.132;6.394;2023-10-31T12:41:31;12.00;99.90
52209;DHT22;38507;53.132;6.394;2023-10-31T12:43:57;11.90;99.90
52209;DHT22;38507;53.132;6.394;2023-10-31T12:46:30;11.80;99.90
52209;DHT22;38507;53.132;6.394;2023-10-31T12:48:59;11.80;99.90
52209;DHT22;38507;53.132;6.394;2023-10-31T12:51:25;11.80;99.90
52209;DHT22;38507;53.132;6.394;2023-10-31T12:53:54;11.80;99.90
52209;DHT22;38507;53.132;6.394;2023-10-31T12:56:58;11.60;99.90
52209;DHT22;38507;53.132;6.394;2023-10-31T12:59:24;11.60;99.90
52209;DHT22;38507;53.132;6.394;2023-10-31T13:01:50;11.60;99.90
52209;DHT22;38507;53.132;6.394;2023-10-31T13:04:27;11.60;99.90
52209;DHT22;38507;53.132;6.394;2023-10-31T13:07:01;11.60;99.90
52209;DHT22;38507;53.132;6.394;2023-10-31T13:09:35;11.60;99.90
52209;DHT22;38507;53.132;6.394;2023-10-31T13:12:04;11.60;99.90
52209;DHT22;38507;53.132;6.394;2023-10-31T13:14:31;11.50;99.90
52209;DHT22;38507;53.132;6.394;2023-10-31T13:16:57;11.50;99.90
52209;DHT22;38507;53.132;6.394;2023-10-31T13:19:22;11.40;99.90
52209;DHT22;38507;53.132;6.394;2023-10-31T13:21:48;11.40;99.90
52209;DHT22;38507;53.132;6.394;2023-10-31T13:24:14;11.50;99.90
52209;DHT22;38507;53.132;6.394;2023-10-31T13:26:40;11.70;99.90
52209;DHT22;38507;53.132;6.394;2023-10-31T13:29:06;11.40;99.90
52209;DHT22;38507;53.132;6.394;2023-10-31T13:31:31;11.30;99.90
52209;DHT22;38507;53.132;6.394;2023-10-31T13:33:57;11.40;99.90
52209;DHT22;38507;53.132;6.394;2023-10-31T13:36:22;11.30;99.90
52209;DHT22;38507;53.132;6.394;2023-10-31T13:38:48;11.40;99.90
52209;DHT22;38507;53.132;6.394;2023-10-31T13:41:14;11.30;99.90
52209;DHT22;38507;53.132;6.394;2023-10-31T13:43:40;11.30;99.90
52209;DHT22;38507;53.132;6.394;2023-10-31T13:46:06;11.30;99.90
52209;DHT22;38507;53.132;6.394;2023-10-31T13:48:32;11.40;99.90
52209;DHT22;38507;53.132;6.394;2023-10-31T13:50:58;11.60;99.90
52209;DHT22;38507;53.132;6.394;2023-10-31T13:53:23;11.80;99.90
52209;DHT22;38507;53.132;6.394;2023-10-31T13:55:49;11.90;99.90
52209;DHT22;38507;53.132;6.394;2023-10-31T13:58:15;11.90;99.90
52209;DHT22;38507;53.132;6.394;2023-10-31T14:00:43;11.90;99.90
52209;DHT22;38507;53.132;6.394;2023-10-31T14:03:09;12.10;99.90
52209;DHT22;38507;53.132;6.394;2023-10-31T14:05:35;12.30;99.90
52209;DHT22;38507;53.132;6.394;2023-10-31T14:08:00;12.30;99.90
52209;DHT22;38507;53.132;6.394;2023-10-31T14:10:26;12.40;99.90
52209;DHT22;38507;53.132;6.394;2023-10-31T14:12:52;12.40;99.90
52209;DHT22;38507;53.132;6.394;2023-10-31T14:15:18;12.30;99.90
52209;DHT22;38507;53.132;6.394;2023-10-31T14:17:47;12.30;99.90
52209;DHT22;38507;53.132;6.394;2023-10-31T14:20:13;12.40;99.90
52209;DHT22;38507;53.132;6.394;2023-10-31T14:22:39;12.40;99.90
52209;DHT22;38507;53.132;6.394;2023-10-31T14:25:05;12.30;99.90
52209;DHT22;38507;53.132;6.394;2023-10-31T14:27:33;12.30;99.90
52209;DHT22;38507;53.132;6.394;2023-10-31T14:29:59;12.30;99.90
52209;DHT22;38507;53.132;6.394;2023-10-31T14:32:24;12.20;99.90
52209;DHT22;38507;53.132;6.394;2023-10-31T14:34:50;12.10;99.90
52209;DHT22;38507;53.132;6.394;2023-10-31T14:37:16;12.10;99.90
52209;DHT22;38507;53.132;6.394;2023-10-31T14:39:42;12.00;99.90
52209;DHT22;38507;53.132;6.394;2023-10-31T14:42:08;11.90;99.90
52209;DHT22;38507;53.132;6.394;2023-10-31T14:44:34;11.90;99.90
52209;DHT22;38507;53.132;6.394;2023-10-31T14:46:59;11.90;99.90
52209;DHT22;38507;53.132;6.394;2023-10-31T14:49:25;11.80;99.90
52209;DHT22;38507;53.132;6.394;2023-10-31T14:51:51;11.70;99.90
52209;DHT22;38507;53.132;6.394;2023-10-31T14:54:16;11.70;99.90
52209;DHT22;38507;53.132;6.394;2023-10-31T14:56:42;11.70;99.90
52209;DHT22;38507;53.132;6.394;2023-10-31T14:59:07;11.70;99.90
52209;DHT22;38507;53.132;6.394;2023-10-31T15:01:33;11.70;99.90
52209;DHT22;38507;53.132;6.394;2023-10-31T15:03:59;11.60;99.90
52209;DHT22;38507;53.132;6.394;2023-10-31T15:06:24;11.60;99.90
52209;DHT22;38507;53.132;6.394;2023-10-31T15:08:50;11.70;99.90
52209;DHT22;38507;53.132;6.394;2023-10-31T15:11:16;11.60;99.90
52209;DHT22;38507;53.132;6.394;2023-10-31T15:13:42;11.50;99.90
52209;DHT22;38507;53.132;6.394;2023-10-31T15:16:08;11.50;99.90
52209;DHT22;38507;53.132;6.394;2023-10-31T15:18:33;11.50;99.90
52209;DHT22;38507;53.132;6.394;2023-10-31T15:20:59;11.40;99.90
52209;DHT22;38507;53.132;6.394;2023-10-31T15:23:26;11.40;99.90
52209;DHT22;38507;53.132;6.394;2023-10-31T15:25:53;11.40;99.90
52209;DHT22;38507;53.132;6.394;2023-10-31T15:28:18;11.30;99.90
52209;DHT22;38507;53.132;6.394;2023-10-31T15:30:44;11.20;99.90
52209;DHT22;38507;53.132;6.394;2023-10-31T15:33:10;11.30;99.90